sensor_id;sensor_type;location;lat;lon;timestamp;P1;durP1;ratioP1;P2;durP2;ratioP2
4766;SDS011;2397;53.576;9.746;2023-04-15T00:00:55;6.90;;;4.57;;
4766;SDS011;2397;53.576;9.746;2023-04-15T00:03:25;4.20;;;3.80;;
4766;SDS011;2397;53.576;9.746;2023-04-15T00:05:52;4.33;;;4.00;;
4766;SDS011;2397;53.576;9.746;2023-04-15T00:08:19;6.00;;;4.53;;
4766;SDS011;2397;53.576;9.746;2023-04-15T00:10:45;10.80;;;4.83;;
4766;SDS011;2397;53.576;9.746;2023-04-15T00:13:12;4.37;;;4.07;;
4766;SDS011;2397;53.576;9.746;2023-04-15T00:15:39;5.47;;;4.97;;
4766;SDS011;2397;53.576;9.746;2023-04-15T00:18:06;4.50;;;4.10;;
4766;SDS011;2397;53.576;9.746;2023-04-15T00:20:33;5.63;;;3.87;;
4766;SDS011;2397;53.576;9.746;2023-04-15T00:23:00;5.70;;;4.77;;
4766;SDS011;2397;53.576;9.746;2023-04-15T00:25:29;5.67;;;4.53;;
4766;SDS011;2397;53.576;9.746;2023-04-15T00:27:55;5.00;;;4.50;;
4766;SDS011;2397;53.576;9.746;2023-04-15T00:30:22;5.10;;;4.70;;
4766;SDS011;2397;53.576;9.746;2023-04-15T00:32:49;5.10;;;4.50;;
4766;SDS011;2397;53.576;9.746;2023-04-15T00:35:19;6.70;;;5.40;;
4766;SDS011;2397;53.576;9.746;2023-04-15T00:37:48;4.87;;;4.37;;
4766;SDS011;2397;53.576;9.746;2023-04-15T00:40:15;7.47;;;5.30;;
4766;SDS011;2397;53.576;9.746;2023-04-15T00:42:44;5.73;;;5.23;;
4766;SDS011;2397;53.576;9.746;2023-04-15T00:45:11;6.00;;;5.20;;
4766;SDS011;2397;53.576;9.746;2023-04-15T00:47:40;5.77;;;5.27;;
4766;SDS011;2397;53.576;9.746;2023-04-15T00:50:08;6.23;;;5.37;;
4766;SDS011;2397;53.576;9.746;2023-04-15T00:52:36;6.13;;;5.53;;
4766;SDS011;2397;53.576;9.746;2023-04-15T00:55:03;8.13;;;5.70;;
4766;SDS011;2397;53.576;9.746;2023-04-15T00:57:30;6.30;;;5.33;;
4766;SDS011;2397;53.576;9.746;2023-04-15T00:59:57;7.00;;;5.30;;
4766;SDS011;2397;53.576;9.746;2023-04-15T01:02:25;6.73;;;6.03;;
4766;SDS011;2397;53.576;9.746;2023-04-15T01:04:52;7.57;;;6.87;;
4766;SDS011;2397;53.576;9.746;2023-04-15T01:07:19;8.53;;;7.27;;
4766;SDS011;2397;53.576;9.746;2023-04-15T01:09:45;10.70;;;6.63;;
4766;SDS011;2397;53.576;9.746;2023-04-15T01:12:13;7.47;;;6.47;;
4766;SDS011;2397;53.576;9.746;2023-04-15T01:14:41;7.70;;;6.90;;
4766;SDS011;2397;53.576;9.746;2023-04-15T01:17:08;8.20;;;6.80;;
4766;SDS011;2397;53.576;9.746;2023-04-15T01:19:35;7.97;;;7.10;;
4766;SDS011;2397;53.576;9.746;2023-04-15T01:22:02;7.27;;;5.93;;
4766;SDS011;2397;53.576;9.746;2023-04-15T01:24:29;7.57;;;6.40;;
4766;SDS011;2397;53.576;9.746;2023-04-15T01:26:56;7.53;;;6.30;;
4766;SDS011;2397;53.576;9.746;2023-04-15T01:29:23;7.20;;;6.40;;
4766;SDS011;2397;53.576;9.746;2023-04-15T01:31:50;8.70;;;6.30;;
4766;SDS011;2397;53.576;9.746;2023-04-15T01:34:18;9.93;;;6.60;;
4766;SDS011;2397;53.576;9.746;2023-04-15T01:36:44;8.60;;;6.50;;
4766;SDS011;2397;53.576;9.746;2023-04-15T01:39:12;8.03;;;5.90;;
4766;SDS011;2397;53.576;9.746;2023-04-15T01:41:39;7.47;;;6.70;;
4766;SDS011;2397;53.576;9.746;2023-04-15T01:44:07;7.80;;;6.50;;
4766;SDS011;2397;53.576;9.746;2023-04-15T01:46:34;7.27;;;6.23;;
4766;SDS011;2397;53.576;9.746;2023-04-15T01:49:01;7.17;;;6.47;;
4766;SDS011;2397;53.576;9.746;2023-04-15T01:51:30;6.70;;;6.03;;
4766;SDS011;2397;53.576;9.746;2023-04-15T01:53:57;6.10;;;5.50;;
4766;SDS011;2397;53.576;9.746;2023-04-15T01:56:23;8.03;;;6.20;;
4766;SDS011;2397;53.576;9.746;2023-04-15T01:58:50;6.77;;;5.70;;
4766;SDS011;2397;53.576;9.746;2023-04-15T02:01:18;5.63;;;5.13;;
4766;SDS011;2397;53.576;9.746;2023-04-15T02:03:45;7.30;;;5.87;;
4766;SDS011;2397;53.576;9.746;2023-04-15T02:06:14;6.93;;;6.23;;
4766;SDS011;2397;53.576;9.746;2023-04-15T02:08:40;5.20;;;4.80;;
4766;SDS011;2397;53.576;9.746;2023-04-15T02:11:07;6.47;;;5.57;;
4766;SDS011;2397;53.576;9.746;2023-04-15T02:13:34;6.73;;;5.70;;
4766;SDS011;2397;53.576;9.746;2023-04-15T02:16:01;7.60;;;5.40;;
4766;SDS011;2397;53.576;9.746;2023-04-15T02:18:28;5.80;;;5.20;;
4766;SDS011;2397;53.576;9.746;2023-04-15T02:20:55;6.47;;;5.87;;
4766;SDS011;2397;53.576;9.746;2023-04-15T02:23:24;6.57;;;5.50;;
4766;SDS011;2397;53.576;9.746;2023-04-15T02:25:50;6.20;;;5.30;;
4766;SDS011;2397;53.576;9.746;2023-04-15T02:28:19;6.20;;;5.40;;
4766;SDS011;2397;53.576;9.746;2023-04-15T02:30:47;8.67;;;6.00;;
4766;SDS011;2397;53.576;9.746;2023-04-15T02:33:18;6.03;;;5.43;;
4766;SDS011;2397;53.576;9.746;2023-04-15T02:35:44;6.23;;;5.50;;
4766;SDS011;2397;53.576;9.746;2023-04-15T02:38:12;7.23;;;5.47;;
4766;SDS011;2397;53.576;9.746;2023-04-15T02:40:39;5.50;;;4.77;;
4766;SDS011;2397;53.576;9.746;2023-04-15T02:43:06;5.57;;;5.00;;
4766;SDS011;2397;53.576;9.746;2023-04-15T02:45:34;8.50;;;5.87;;
4766;SDS011;2397;53.576;9.746;2023-04-15T02:48:03;6.57;;;5.40;;
4766;SDS011;2397;53.576;9.746;2023-04-15T02:50:32;6.93;;;5.70;;
4766;SDS011;2397;53.576;9.746;2023-04-15T02:52:59;5.87;;;5.27;;
4766;SDS011;2397;53.576;9.746;2023-04-15T02:55:29;6.30;;;5.70;;
4766;SDS011;2397;53.576;9.746;2023-04-15T02:57:56;5.83;;;5.03;;
4766;SDS011;2397;53.576;9.746;2023-04-15T03:00:26;7.70;;;6.10;;
4766;SDS011;2397;53.576;9.746;2023-04-15T03:02:56;6.23;;;5.63;;
4766;SDS011;2397;53.576;9.746;2023-04-15T03:05:24;6.93;;;6.07;;
4766;SDS011;2397;53.576;9.746;2023-04-15T03:07:51;6.50;;;5.80;;
4766;SDS011;2397;53.576;9.746;2023-04-15T03:10:19;6.20;;;5.60;;
4766;SDS011;2397;53.576;9.746;2023-04-15T03:12:46;7.57;;;6.80;;
4766;SDS011;2397;53.576;9.746;2023-04-15T03:15:19;6.93;;;6.10;;
4766;SDS011;2397;53.576;9.746;2023-04-15T03:17:48;7.07;;;6.13;;
4766;SDS011;2397;53.576;9.746;2023-04-15T03:20:16;6.80;;;6.10;;
4766;SDS011;2397;53.576;9.746;2023-04-15T03:22:42;7.47;;;6.70;;
4766;SDS011;2397;53.576;9.746;2023-04-15T03:25:09;8.13;;;7.33;;
4766;SDS011;2397;53.576;9.746;2023-04-15T03:27:37;8.00;;;6.67;;
4766;SDS011;2397;53.576;9.746;2023-04-15T03:30:04;7.47;;;6.17;;
4766;SDS011;2397;53.576;9.746;2023-04-15T03:32:34;8.37;;;6.43;;
4766;SDS011;2397;53.576;9.746;2023-04-15T03:35:00;6.60;;;5.90;;
4766;SDS011;2397;53.576;9.746;2023-04-15T03:37:27;7.47;;;6.23;;
4766;SDS011;2397;53.576;9.746;2023-04-15T03:39:54;8.07;;;6.63;;
4766;SDS011;2397;53.576;9.746;2023-04-15T03:42:20;9.93;;;6.93;;
4766;SDS011;2397;53.576;9.746;2023-04-15T03:44:47;7.13;;;6.33;;
4766;SDS011;2397;53.576;9.746;2023-04-15T03:47:14;9.50;;;7.03;;
4766;SDS011;2397;53.576;9.746;2023-04-15T03:49:40;9.03;;;6.73;;
4766;SDS011;2397;53.576;9.746;2023-04-15T03:52:07;8.40;;;7.27;;
4766;SDS011;2397;53.576;9.746;2023-04-15T03:54:33;8.47;;;7.47;;
4766;SDS011;2397;53.576;9.746;2023-04-15T03:57:00;7.63;;;6.57;;
4766;SDS011;2397;53.576;9.746;2023-04-15T03:59:27;8.03;;;6.80;;
4766;SDS011;2397;53.576;9.746;2023-04-15T04:01:54;7.43;;;6.63;;
4766;SDS011;2397;53.576;9.746;2023-04-15T04:04:20;7.90;;;7.10;;
4766;SDS011;2397;53.576;9.746;2023-04-15T04:06:47;8.10;;;6.97;;
4766;SDS011;2397;53.576;9.746;2023-04-15T04:09:14;7.60;;;6.70;;
4766;SDS011;2397;53.576;9.746;2023-04-15T04:11:40;10.03;;;7.53;;
4766;SDS011;2397;53.576;9.746;2023-04-15T04:14:07;8.27;;;7.07;;
4766;SDS011;2397;53.576;9.746;2023-04-15T04:16:34;8.33;;;6.90;;
4766;SDS011;2397;53.576;9.746;2023-04-15T04:19:00;9.97;;;7.03;;
4766;SDS011;2397;53.576;9.746;2023-04-15T04:21:28;11.13;;;8.53;;
4766;SDS011;2397;53.576;9.746;2023-04-15T04:23:54;11.70;;;8.00;;
4766;SDS011;2397;53.576;9.746;2023-04-15T04:26:21;9.47;;;8.10;;
4766;SDS011;2397;53.576;9.746;2023-04-15T04:28:48;10.60;;;8.10;;
4766;SDS011;2397;53.576;9.746;2023-04-15T04:31:14;11.00;;;8.43;;
4766;SDS011;2397;53.576;9.746;2023-04-15T04:33:41;10.53;;;7.70;;
4766;SDS011;2397;53.576;9.746;2023-04-15T04:36:08;13.00;;;8.77;;
4766;SDS011;2397;53.576;9.746;2023-04-15T04:38:34;12.70;;;8.63;;
4766;SDS011;2397;53.576;9.746;2023-04-15T04:41:01;9.77;;;7.30;;
4766;SDS011;2397;53.576;9.746;2023-04-15T04:43:27;11.37;;;8.80;;
4766;SDS011;2397;53.576;9.746;2023-04-15T04:45:54;11.00;;;8.30;;
4766;SDS011;2397;53.576;9.746;2023-04-15T04:48:20;12.43;;;8.83;;
4766;SDS011;2397;53.576;9.746;2023-04-15T04:50:48;11.77;;;8.53;;
4766;SDS011;2397;53.576;9.746;2023-04-15T04:53:14;14.50;;;9.53;;
4766;SDS011;2397;53.576;9.746;2023-04-15T04:55:41;14.57;;;10.23;;
4766;SDS011;2397;53.576;9.746;2023-04-15T04:58:08;14.87;;;9.60;;
4766;SDS011;2397;53.576;9.746;2023-04-15T05:00:34;15.00;;;10.70;;
4766;SDS011;2397;53.576;9.746;2023-04-15T05:03:02;13.63;;;9.23;;
4766;SDS011;2397;53.576;9.746;2023-04-15T05:05:29;14.77;;;9.60;;
4766;SDS011;2397;53.576;9.746;2023-04-15T05:07:56;15.83;;;10.03;;
4766;SDS011;2397;53.576;9.746;2023-04-15T05:10:23;19.53;;;11.53;;
4766;SDS011;2397;53.576;9.746;2023-04-15T05:12:49;14.53;;;11.00;;
4766;SDS011;2397;53.576;9.746;2023-04-15T05:15:17;17.83;;;11.50;;
4766;SDS011;2397;53.576;9.746;2023-04-15T05:17:43;13.73;;;10.30;;
4766;SDS011;2397;53.576;9.746;2023-04-15T05:20:10;17.50;;;12.13;;
4766;SDS011;2397;53.576;9.746;2023-04-15T05:22:37;19.70;;;11.93;;
4766;SDS011;2397;53.576;9.746;2023-04-15T05:25:04;16.67;;;11.97;;
4766;SDS011;2397;53.576;9.746;2023-04-15T05:27:31;17.37;;;12.63;;
4766;SDS011;2397;53.576;9.746;2023-04-15T05:29:57;21.23;;;13.43;;
4766;SDS011;2397;53.576;9.746;2023-04-15T05:32:24;20.13;;;12.73;;
4766;SDS011;2397;53.576;9.746;2023-04-15T05:34:50;19.83;;;12.57;;
4766;SDS011;2397;53.576;9.746;2023-04-15T05:37:17;18.67;;;12.80;;
4766;SDS011;2397;53.576;9.746;2023-04-15T05:39:46;21.27;;;13.40;;
4766;SDS011;2397;53.576;9.746;2023-04-15T05:42:13;18.93;;;12.27;;
4766;SDS011;2397;53.576;9.746;2023-04-15T05:44:40;20.47;;;12.10;;
4766;SDS011;2397;53.576;9.746;2023-04-15T05:47:06;21.97;;;14.27;;
4766;SDS011;2397;53.576;9.746;2023-04-15T05:49:33;24.90;;;13.83;;
4766;SDS011;2397;53.576;9.746;2023-04-15T05:52:00;24.77;;;15.00;;
4766;SDS011;2397;53.576;9.746;2023-04-15T05:54:27;23.03;;;14.60;;
4766;SDS011;2397;53.576;9.746;2023-04-15T05:56:54;17.87;;;12.23;;
4766;SDS011;2397;53.576;9.746;2023-04-15T05:59:21;24.50;;;14.43;;
4766;SDS011;2397;53.576;9.746;2023-04-15T06:01:48;21.27;;;14.60;;
4766;SDS011;2397;53.576;9.746;2023-04-15T06:04:15;22.13;;;14.13;;
4766;SDS011;2397;53.576;9.746;2023-04-15T06:06:42;17.50;;;13.33;;
4766;SDS011;2397;53.576;9.746;2023-04-15T06:09:09;18.87;;;12.67;;
4766;SDS011;2397;53.576;9.746;2023-04-15T06:11:35;23.30;;;14.40;;
4766;SDS011;2397;53.576;9.746;2023-04-15T06:14:02;22.80;;;15.77;;
4766;SDS011;2397;53.576;9.746;2023-04-15T06:16:28;23.70;;;15.10;;
4766;SDS011;2397;53.576;9.746;2023-04-15T06:18:55;23.53;;;15.50;;
4766;SDS011;2397;53.576;9.746;2023-04-15T06:21:21;28.03;;;16.10;;
4766;SDS011;2397;53.576;9.746;2023-04-15T06:23:48;27.60;;;15.83;;
4766;SDS011;2397;53.576;9.746;2023-04-15T06:26:15;24.67;;;16.03;;
4766;SDS011;2397;53.576;9.746;2023-04-15T06:28:42;24.67;;;15.80;;
4766;SDS011;2397;53.576;9.746;2023-04-15T06:31:08;28.67;;;17.33;;
4766;SDS011;2397;53.576;9.746;2023-04-15T06:33:35;29.30;;;19.00;;
4766;SDS011;2397;53.576;9.746;2023-04-15T06:36:01;28.17;;;16.80;;
4766;SDS011;2397;53.576;9.746;2023-04-15T06:38:28;27.10;;;17.13;;
4766;SDS011;2397;53.576;9.746;2023-04-15T06:40:54;28.17;;;18.60;;
4766;SDS011;2397;53.576;9.746;2023-04-15T06:43:21;27.43;;;17.10;;
4766;SDS011;2397;53.576;9.746;2023-04-15T06:45:47;29.77;;;17.90;;
4766;SDS011;2397;53.576;9.746;2023-04-15T06:48:14;31.13;;;18.10;;
4766;SDS011;2397;53.576;9.746;2023-04-15T06:50:41;30.90;;;18.90;;
4766;SDS011;2397;53.576;9.746;2023-04-15T06:53:07;35.07;;;19.20;;
4766;SDS011;2397;53.576;9.746;2023-04-15T06:55:34;31.10;;;19.27;;
4766;SDS011;2397;53.576;9.746;2023-04-15T06:58:00;34.20;;;19.67;;
4766;SDS011;2397;53.576;9.746;2023-04-15T07:00:27;30.93;;;19.77;;
4766;SDS011;2397;53.576;9.746;2023-04-15T07:02:53;36.93;;;20.90;;
4766;SDS011;2397;53.576;9.746;2023-04-15T07:05:21;31.23;;;20.07;;
4766;SDS011;2397;53.576;9.746;2023-04-15T07:07:47;33.77;;;22.00;;
4766;SDS011;2397;53.576;9.746;2023-04-15T07:10:14;35.43;;;21.50;;
4766;SDS011;2397;53.576;9.746;2023-04-15T07:12:40;35.63;;;20.73;;
4766;SDS011;2397;53.576;9.746;2023-04-15T07:15:07;35.60;;;21.57;;
4766;SDS011;2397;53.576;9.746;2023-04-15T07:17:34;36.80;;;21.23;;
4766;SDS011;2397;53.576;9.746;2023-04-15T07:20:00;40.53;;;23.40;;
4766;SDS011;2397;53.576;9.746;2023-04-15T07:22:27;35.60;;;21.23;;
4766;SDS011;2397;53.576;9.746;2023-04-15T07:24:54;35.77;;;21.27;;
4766;SDS011;2397;53.576;9.746;2023-04-15T07:27:20;34.33;;;21.90;;
4766;SDS011;2397;53.576;9.746;2023-04-15T07:29:47;30.70;;;20.60;;
4766;SDS011;2397;53.576;9.746;2023-04-15T07:32:14;30.80;;;21.97;;
4766;SDS011;2397;53.576;9.746;2023-04-15T07:34:40;37.50;;;21.30;;
4766;SDS011;2397;53.576;9.746;2023-04-15T07:37:07;33.60;;;21.00;;
4766;SDS011;2397;53.576;9.746;2023-04-15T07:39:33;36.43;;;22.60;;
4766;SDS011;2397;53.576;9.746;2023-04-15T07:42:00;35.60;;;20.60;;
4766;SDS011;2397;53.576;9.746;2023-04-15T07:44:27;38.30;;;23.10;;
4766;SDS011;2397;53.576;9.746;2023-04-15T07:46:54;36.80;;;23.30;;
4766;SDS011;2397;53.576;9.746;2023-04-15T07:49:21;37.90;;;21.80;;
4766;SDS011;2397;53.576;9.746;2023-04-15T07:51:48;39.40;;;24.73;;
4766;SDS011;2397;53.576;9.746;2023-04-15T07:54:15;39.23;;;24.37;;
4766;SDS011;2397;53.576;9.746;2023-04-15T07:56:41;43.23;;;24.33;;
4766;SDS011;2397;53.576;9.746;2023-04-15T07:59:08;44.57;;;25.83;;
4766;SDS011;2397;53.576;9.746;2023-04-15T08:01:35;43.20;;;25.40;;
4766;SDS011;2397;53.576;9.746;2023-04-15T08:04:02;37.13;;;24.47;;
4766;SDS011;2397;53.576;9.746;2023-04-15T08:06:29;42.87;;;25.43;;
4766;SDS011;2397;53.576;9.746;2023-04-15T08:08:55;45.93;;;26.20;;
4766;SDS011;2397;53.576;9.746;2023-04-15T08:11:22;50.93;;;27.23;;
4766;SDS011;2397;53.576;9.746;2023-04-15T08:13:49;46.10;;;25.00;;
4766;SDS011;2397;53.576;9.746;2023-04-15T08:18:45;42.40;;;27.40;;
4766;SDS011;2397;53.576;9.746;2023-04-15T08:21:12;52.70;;;27.80;;
4766;SDS011;2397;53.576;9.746;2023-04-15T08:23:39;49.23;;;27.80;;
4766;SDS011;2397;53.576;9.746;2023-04-15T08:26:06;46.57;;;28.50;;
4766;SDS011;2397;53.576;9.746;2023-04-15T08:28:34;45.10;;;28.43;;
4766;SDS011;2397;53.576;9.746;2023-04-15T08:31:01;50.07;;;28.27;;
4766;SDS011;2397;53.576;9.746;2023-04-15T08:33:27;51.43;;;28.57;;
4766;SDS011;2397;53.576;9.746;2023-04-15T08:35:54;53.90;;;28.50;;
4766;SDS011;2397;53.576;9.746;2023-04-15T08:38:20;46.93;;;28.70;;
4766;SDS011;2397;53.576;9.746;2023-04-15T08:40:47;46.90;;;28.50;;
4766;SDS011;2397;53.576;9.746;2023-04-15T08:43:20;48.77;;;29.77;;
4766;SDS011;2397;53.576;9.746;2023-04-15T08:45:53;47.33;;;29.83;;
4766;SDS011;2397;53.576;9.746;2023-04-15T08:48:20;51.60;;;29.40;;
4766;SDS011;2397;53.576;9.746;2023-04-15T08:50:49;44.63;;;27.23;;
4766;SDS011;2397;53.576;9.746;2023-04-15T08:53:16;45.00;;;28.00;;
4766;SDS011;2397;53.576;9.746;2023-04-15T08:55:44;46.80;;;28.20;;
4766;SDS011;2397;53.576;9.746;2023-04-15T08:58:12;47.80;;;28.23;;
4766;SDS011;2397;53.576;9.746;2023-04-15T09:00:39;45.57;;;27.30;;
4766;SDS011;2397;53.576;9.746;2023-04-15T09:03:07;42.50;;;26.63;;
4766;SDS011;2397;53.576;9.746;2023-04-15T09:05:35;44.83;;;27.37;;
4766;SDS011;2397;53.576;9.746;2023-04-15T09:08:02;50.13;;;28.87;;
4766;SDS011;2397;53.576;9.746;2023-04-15T09:10:31;41.50;;;26.27;;
4766;SDS011;2397;53.576;9.746;2023-04-15T09:13:00;45.43;;;28.23;;
4766;SDS011;2397;53.576;9.746;2023-04-15T09:15:27;45.03;;;27.90;;
4766;SDS011;2397;53.576;9.746;2023-04-15T09:17:55;50.60;;;28.70;;
4766;SDS011;2397;53.576;9.746;2023-04-15T09:20:22;48.17;;;28.37;;
4766;SDS011;2397;53.576;9.746;2023-04-15T09:22:49;49.13;;;29.50;;
4766;SDS011;2397;53.576;9.746;2023-04-15T09:27:50;50.20;;;28.53;;
4766;SDS011;2397;53.576;9.746;2023-04-15T09:30:19;45.60;;;28.47;;
4766;SDS011;2397;53.576;9.746;2023-04-15T09:32:48;48.30;;;28.47;;
4766;SDS011;2397;53.576;9.746;2023-04-15T09:35:18;46.00;;;29.27;;
4766;SDS011;2397;53.576;9.746;2023-04-15T09:37:47;53.23;;;28.20;;
4766;SDS011;2397;53.576;9.746;2023-04-15T09:40:14;52.70;;;30.10;;
4766;SDS011;2397;53.576;9.746;2023-04-15T09:42:56;44.20;;;28.00;;
4766;SDS011;2397;53.576;9.746;2023-04-15T09:45:23;51.73;;;28.10;;
4766;SDS011;2397;53.576;9.746;2023-04-15T09:47:55;49.20;;;28.57;;
4766;SDS011;2397;53.576;9.746;2023-04-15T09:50:27;44.87;;;29.00;;
4766;SDS011;2397;53.576;9.746;2023-04-15T09:52:54;43.93;;;28.37;;
4766;SDS011;2397;53.576;9.746;2023-04-15T09:55:21;46.70;;;29.10;;
4766;SDS011;2397;53.576;9.746;2023-04-15T09:57:48;49.70;;;28.47;;
4766;SDS011;2397;53.576;9.746;2023-04-15T10:00:14;50.70;;;28.73;;
4766;SDS011;2397;53.576;9.746;2023-04-15T10:02:41;52.60;;;29.17;;
4766;SDS011;2397;53.576;9.746;2023-04-15T10:05:13;46.83;;;28.17;;
4766;SDS011;2397;53.576;9.746;2023-04-15T10:07:40;48.67;;;29.67;;
4766;SDS011;2397;53.576;9.746;2023-04-15T10:10:08;44.00;;;25.70;;
4766;SDS011;2397;53.576;9.746;2023-04-15T10:12:36;48.97;;;29.27;;
4766;SDS011;2397;53.576;9.746;2023-04-15T10:15:03;50.73;;;28.50;;
4766;SDS011;2397;53.576;9.746;2023-04-15T10:17:31;47.43;;;30.63;;
4766;SDS011;2397;53.576;9.746;2023-04-15T10:20:00;42.40;;;25.57;;
4766;SDS011;2397;53.576;9.746;2023-04-15T10:22:30;48.37;;;27.50;;
4766;SDS011;2397;53.576;9.746;2023-04-15T10:24:58;48.93;;;29.50;;
4766;SDS011;2397;53.576;9.746;2023-04-15T10:27:27;38.03;;;25.70;;
4766;SDS011;2397;53.576;9.746;2023-04-15T10:29:55;44.63;;;29.20;;
4766;SDS011;2397;53.576;9.746;2023-04-15T10:32:24;42.83;;;26.90;;
4766;SDS011;2397;53.576;9.746;2023-04-15T10:34:51;42.47;;;26.20;;
4766;SDS011;2397;53.576;9.746;2023-04-15T10:37:20;41.70;;;25.63;;
4766;SDS011;2397;53.576;9.746;2023-04-15T10:39:48;39.63;;;25.23;;
4766;SDS011;2397;53.576;9.746;2023-04-15T10:42:16;37.97;;;26.10;;
4766;SDS011;2397;53.576;9.746;2023-04-15T10:44:48;42.63;;;25.80;;
4766;SDS011;2397;53.576;9.746;2023-04-15T10:47:19;41.37;;;26.33;;
4766;SDS011;2397;53.576;9.746;2023-04-15T10:49:48;48.73;;;26.67;;
4766;SDS011;2397;53.576;9.746;2023-04-15T10:52:22;38.53;;;25.13;;
4766;SDS011;2397;53.576;9.746;2023-04-15T10:54:50;37.37;;;25.97;;
4766;SDS011;2397;53.576;9.746;2023-04-15T10:57:33;36.43;;;25.97;;
4766;SDS011;2397;53.576;9.746;2023-04-15T11:00:03;37.70;;;26.27;;
4766;SDS011;2397;53.576;9.746;2023-04-15T11:02:37;38.30;;;23.50;;
4766;SDS011;2397;53.576;9.746;2023-04-15T11:05:06;33.57;;;22.00;;
4766;SDS011;2397;53.576;9.746;2023-04-15T11:12:43;34.40;;;22.90;;
4766;SDS011;2397;53.576;9.746;2023-04-15T11:15:29;29.90;;;22.27;;
4766;SDS011;2397;53.576;9.746;2023-04-15T11:20:40;29.60;;;21.67;;
4766;SDS011;2397;53.576;9.746;2023-04-15T11:23:10;26.17;;;21.03;;
4766;SDS011;2397;53.576;9.746;2023-04-15T11:25:41;31.40;;;20.70;;
4766;SDS011;2397;53.576;9.746;2023-04-15T11:28:08;29.20;;;21.13;;
4766;SDS011;2397;53.576;9.746;2023-04-15T11:30:37;22.83;;;17.53;;
4766;SDS011;2397;53.576;9.746;2023-04-15T11:33:04;26.77;;;18.80;;
4766;SDS011;2397;53.576;9.746;2023-04-15T11:35:35;25.50;;;18.90;;
4766;SDS011;2397;53.576;9.746;2023-04-15T11:38:02;27.73;;;20.20;;
4766;SDS011;2397;53.576;9.746;2023-04-15T11:40:29;25.60;;;18.53;;
4766;SDS011;2397;53.576;9.746;2023-04-15T11:45:32;25.77;;;17.60;;
4766;SDS011;2397;53.576;9.746;2023-04-15T11:48:04;22.93;;;17.23;;
4766;SDS011;2397;53.576;9.746;2023-04-15T11:50:35;21.43;;;16.23;;
4766;SDS011;2397;53.576;9.746;2023-04-15T11:53:02;21.53;;;16.10;;
4766;SDS011;2397;53.576;9.746;2023-04-15T11:55:40;19.70;;;15.53;;
4766;SDS011;2397;53.576;9.746;2023-04-15T12:00:52;17.53;;;13.90;;
4766;SDS011;2397;53.576;9.746;2023-04-15T12:03:24;24.00;;;13.90;;
4766;SDS011;2397;53.576;9.746;2023-04-15T12:13:55;11.23;;;8.83;;
4766;SDS011;2397;53.576;9.746;2023-04-15T12:16:24;9.57;;;8.57;;
4766;SDS011;2397;53.576;9.746;2023-04-15T12:18:51;10.40;;;8.87;;
4766;SDS011;2397;53.576;9.746;2023-04-15T12:21:23;9.43;;;8.50;;
4766;SDS011;2397;53.576;9.746;2023-04-15T12:23:52;10.20;;;9.20;;
4766;SDS011;2397;53.576;9.746;2023-04-15T12:29:04;10.93;;;9.83;;
4766;SDS011;2397;53.576;9.746;2023-04-15T12:31:35;10.70;;;9.40;;
4766;SDS011;2397;53.576;9.746;2023-04-15T12:34:02;11.63;;;9.43;;
4766;SDS011;2397;53.576;9.746;2023-04-15T12:36:33;11.50;;;10.10;;
4766;SDS011;2397;53.576;9.746;2023-04-15T12:39:05;12.43;;;8.93;;
4766;SDS011;2397;53.576;9.746;2023-04-15T12:41:32;9.93;;;8.40;;
4766;SDS011;2397;53.576;9.746;2023-04-15T12:43:58;9.90;;;8.90;;
4766;SDS011;2397;53.576;9.746;2023-04-15T12:46:25;9.73;;;8.50;;
4766;SDS011;2397;53.576;9.746;2023-04-15T12:48:52;9.77;;;8.73;;
4766;SDS011;2397;53.576;9.746;2023-04-15T12:51:19;9.27;;;8.40;;
4766;SDS011;2397;53.576;9.746;2023-04-15T12:53:48;9.33;;;8.33;;
4766;SDS011;2397;53.576;9.746;2023-04-15T12:56:15;9.40;;;8.40;;
4766;SDS011;2397;53.576;9.746;2023-04-15T12:58:42;10.43;;;9.40;;
4766;SDS011;2397;53.576;9.746;2023-04-15T13:01:09;9.50;;;8.60;;
4766;SDS011;2397;53.576;9.746;2023-04-15T13:03:36;10.00;;;8.40;;
4766;SDS011;2397;53.576;9.746;2023-04-15T13:06:03;9.27;;;8.37;;
4766;SDS011;2397;53.576;9.746;2023-04-15T13:08:30;11.80;;;8.30;;
4766;SDS011;2397;53.576;9.746;2023-04-15T13:10:57;9.00;;;8.10;;
4766;SDS011;2397;53.576;9.746;2023-04-15T13:13:24;10.13;;;8.30;;
4766;SDS011;2397;53.576;9.746;2023-04-15T13:15:50;10.73;;;9.40;;
4766;SDS011;2397;53.576;9.746;2023-04-15T13:18:17;9.47;;;8.57;;
4766;SDS011;2397;53.576;9.746;2023-04-15T13:20:44;10.07;;;8.20;;
4766;SDS011;2397;53.576;9.746;2023-04-15T13:23:10;8.27;;;7.47;;
4766;SDS011;2397;53.576;9.746;2023-04-15T13:25:37;10.87;;;9.20;;
4766;SDS011;2397;53.576;9.746;2023-04-15T13:28:03;9.90;;;8.63;;
4766;SDS011;2397;53.576;9.746;2023-04-15T13:30:30;8.33;;;7.63;;
4766;SDS011;2397;53.576;9.746;2023-04-15T13:32:57;10.70;;;9.43;;
4766;SDS011;2397;53.576;9.746;2023-04-15T13:35:24;11.03;;;9.53;;
4766;SDS011;2397;53.576;9.746;2023-04-15T13:37:50;10.60;;;9.60;;
4766;SDS011;2397;53.576;9.746;2023-04-15T13:40:18;11.47;;;10.27;;
4766;SDS011;2397;53.576;9.746;2023-04-15T13:42:45;10.57;;;8.53;;
4766;SDS011;2397;53.576;9.746;2023-04-15T13:45:12;12.80;;;10.97;;
4766;SDS011;2397;53.576;9.746;2023-04-15T13:47:39;12.00;;;10.20;;
4766;SDS011;2397;53.576;9.746;2023-04-15T13:50:05;10.53;;;9.30;;
4766;SDS011;2397;53.576;9.746;2023-04-15T13:52:32;10.40;;;9.30;;
4766;SDS011;2397;53.576;9.746;2023-04-15T13:54:59;13.20;;;9.40;;
4766;SDS011;2397;53.576;9.746;2023-04-15T13:57:44;11.43;;;9.10;;
4766;SDS011;2397;53.576;9.746;2023-04-15T14:00:12;9.93;;;9.00;;
4766;SDS011;2397;53.576;9.746;2023-04-15T14:02:39;8.70;;;7.87;;
4766;SDS011;2397;53.576;9.746;2023-04-15T14:05:07;12.93;;;8.57;;
4766;SDS011;2397;53.576;9.746;2023-04-15T14:07:34;16.03;;;7.50;;
4766;SDS011;2397;53.576;9.746;2023-04-15T14:10:01;8.57;;;7.70;;
4766;SDS011;2397;53.576;9.746;2023-04-15T14:12:28;9.53;;;8.17;;
4766;SDS011;2397;53.576;9.746;2023-04-15T14:14:55;9.83;;;8.30;;
4766;SDS011;2397;53.576;9.746;2023-04-15T14:17:21;8.77;;;7.77;;
4766;SDS011;2397;53.576;9.746;2023-04-15T14:19:48;8.80;;;8.00;;
4766;SDS011;2397;53.576;9.746;2023-04-15T14:22:14;8.63;;;7.93;;
4766;SDS011;2397;53.576;9.746;2023-04-15T14:24:41;9.03;;;8.13;;
4766;SDS011;2397;53.576;9.746;2023-04-15T14:27:08;9.20;;;8.30;;
4766;SDS011;2397;53.576;9.746;2023-04-15T14:29:36;8.80;;;7.93;;
4766;SDS011;2397;53.576;9.746;2023-04-15T14:32:03;15.00;;;8.67;;
4766;SDS011;2397;53.576;9.746;2023-04-15T14:34:38;9.00;;;7.90;;
4766;SDS011;2397;53.576;9.746;2023-04-15T14:37:04;9.50;;;8.50;;
4766;SDS011;2397;53.576;9.746;2023-04-15T14:39:31;11.53;;;8.30;;
4766;SDS011;2397;53.576;9.746;2023-04-15T14:41:57;9.40;;;8.50;;
4766;SDS011;2397;53.576;9.746;2023-04-15T14:44:24;9.30;;;8.50;;
4766;SDS011;2397;53.576;9.746;2023-04-15T14:46:50;9.57;;;8.60;;
4766;SDS011;2397;53.576;9.746;2023-04-15T14:49:17;8.70;;;7.80;;
4766;SDS011;2397;53.576;9.746;2023-04-15T14:51:44;9.90;;;8.90;;
4766;SDS011;2397;53.576;9.746;2023-04-15T14:54:11;8.53;;;7.70;;
4766;SDS011;2397;53.576;9.746;2023-04-15T14:56:38;9.03;;;8.13;;
4766;SDS011;2397;53.576;9.746;2023-04-15T14:59:04;8.23;;;7.57;;
4766;SDS011;2397;53.576;9.746;2023-04-15T15:01:31;7.60;;;6.90;;
4766;SDS011;2397;53.576;9.746;2023-04-15T15:03:59;10.60;;;9.50;;
4766;SDS011;2397;53.576;9.746;2023-04-15T15:06:26;13.20;;;8.27;;
4766;SDS011;2397;53.576;9.746;2023-04-15T15:08:53;9.53;;;8.63;;
4766;SDS011;2397;53.576;9.746;2023-04-15T15:11:19;9.43;;;7.43;;
4766;SDS011;2397;53.576;9.746;2023-04-15T15:13:46;9.03;;;8.10;;
4766;SDS011;2397;53.576;9.746;2023-04-15T15:16:12;12.63;;;9.07;;
4766;SDS011;2397;53.576;9.746;2023-04-15T15:18:40;11.07;;;9.50;;
4766;SDS011;2397;53.576;9.746;2023-04-15T15:21:06;9.07;;;8.17;;
4766;SDS011;2397;53.576;9.746;2023-04-15T15:23:33;8.50;;;7.70;;
4766;SDS011;2397;53.576;9.746;2023-04-15T15:25:59;8.67;;;7.67;;
4766;SDS011;2397;53.576;9.746;2023-04-15T15:28:26;7.50;;;6.80;;
4766;SDS011;2397;53.576;9.746;2023-04-15T15:30:53;9.60;;;8.70;;